sensor_id;sensor_type;location;lat;lon;timestamp;temperature;humidity
72814;DHT22;60945;48.516;-2.768;2024-03-06T00:00:48;5.90;78.50
72814;DHT22;60945;48.516;-2.768;2024-03-06T00:03:14;6.00;78.10
72814;DHT22;60945;48.516;-2.768;2024-03-06T00:05:40;6.00;77.80
72814;DHT22;60945;48.516;-2.768;2024-03-06T00:08:06;6.00;77.80
72814;DHT22;60945;48.516;-2.768;2024-03-06T00:10:31;5.90;78.10
72814;DHT22;60945;48.516;-2.768;2024-03-06T00:12:57;5.80;78.00
72814;DHT22;60945;48.516;-2.768;2024-03-06T00:15:23;5.80;77.90
72814;DHT22;60945;48.516;-2.768;2024-03-06T00:17:48;5.80;78.20
72814;DHT22;60945;48.516;-2.768;2024-03-06T00:20:14;5.80;78.20
72814;DHT22;60945;48.516;-2.768;2024-03-06T00:22:40;5.80;78.40
72814;DHT22;60945;48.516;-2.768;2024-03-06T00:25:06;5.70;78.40
72814;DHT22;60945;48.516;-2.768;2024-03-06T00:27:32;5.70;79.10
72814;DHT22;60945;48.516;-2.768;2024-03-06T00:29:57;5.70;79.10
72814;DHT22;60945;48.516;-2.768;2024-03-06T00:32:23;5.60;79.00
72814;DHT22;60945;48.516;-2.768;2024-03-06T00:34:49;5.60;79.10
72814;DHT22;60945;48.516;-2.768;2024-03-06T00:37:14;5.60;79.00
72814;DHT22;60945;48.516;-2.768;2024-03-06T00:39:40;5.50;79.50
72814;DHT22;60945;48.516;-2.768;2024-03-06T00:42:06;5.50;79.80
72814;DHT22;60945;48.516;-2.768;2024-03-06T00:44:34;5.40;79.90
72814;DHT22;60945;48.516;-2.768;2024-03-06T00:47:00;5.50;80.00
72814;DHT22;60945;48.516;-2.768;2024-03-06T00:49:25;5.60;79.70
72814;DHT22;60945;48.516;-2.768;2024-03-06T00:51:51;5.50;79.30
72814;DHT22;60945;48.516;-2.768;2024-03-06T00:54:17;5.60;79.10
72814;DHT22;60945;48.516;-2.768;2024-03-06T00:56:42;5.60;78.90
72814;DHT22;60945;48.516;-2.768;2024-03-06T00:59:08;5.60;79.00
72814;DHT22;60945;48.516;-2.768;2024-03-06T01:01:34;5.50;79.40
72814;DHT22;60945;48.516;-2.768;2024-03-06T01:04:00;5.40;80.00
72814;DHT22;60945;48.516;-2.768;2024-03-06T01:06:26;5.50;79.60
72814;DHT22;60945;48.516;-2.768;2024-03-06T01:08:51;5.40;79.40
72814;DHT22;60945;48.516;-2.768;2024-03-06T01:11:17;5.30;80.20
72814;DHT22;60945;48.516;-2.768;2024-03-06T01:13:42;5.20;80.70
72814;DHT22;60945;48.516;-2.768;2024-03-06T01:16:08;5.00;81.20
72814;DHT22;60945;48.516;-2.768;2024-03-06T01:18:34;5.10;80.80
72814;DHT22;60945;48.516;-2.768;2024-03-06T01:20:59;5.10;80.90
72814;DHT22;60945;48.516;-2.768;2024-03-06T01:23:25;5.20;80.90
72814;DHT22;60945;48.516;-2.768;2024-03-06T01:25:50;5.20;80.30
72814;DHT22;60945;48.516;-2.768;2024-03-06T01:28:16;5.20;80.20
72814;DHT22;60945;48.516;-2.768;2024-03-06T01:30:43;5.10;80.30
72814;DHT22;60945;48.516;-2.768;2024-03-06T01:33:08;5.00;80.40
72814;DHT22;60945;48.516;-2.768;2024-03-06T01:35:35;5.00;80.70
72814;DHT22;60945;48.516;-2.768;2024-03-06T01:38:01;5.10;80.70
72814;DHT22;60945;48.516;-2.768;2024-03-06T01:40:26;5.10;81.50
72814;DHT22;60945;48.516;-2.768;2024-03-06T01:42:52;5.20;81.20
72814;DHT22;60945;48.516;-2.768;2024-03-06T01:45:18;5.20;81.50
72814;DHT22;60945;48.516;-2.768;2024-03-06T01:47:45;5.30;81.30
72814;DHT22;60945;48.516;-2.768;2024-03-06T01:50:11;5.30;80.70
72814;DHT22;60945;48.516;-2.768;2024-03-06T01:52:39;5.20;81.10
72814;DHT22;60945;48.516;-2.768;2024-03-06T01:55:06;5.20;81.20
72814;DHT22;60945;48.516;-2.768;2024-03-06T01:57:33;5.30;80.40
72814;DHT22;60945;48.516;-2.768;2024-03-06T02:00:00;5.20;80.90
72814;DHT22;60945;48.516;-2.768;2024-03-06T02:02:26;5.20;81.00
72814;DHT22;60945;48.516;-2.768;2024-03-06T02:04:53;5.20;81.00
72814;DHT22;60945;48.516;-2.768;2024-03-06T02:07:20;5.10;81.10
72814;DHT22;60945;48.516;-2.768;2024-03-06T02:09:46;5.10;80.90
72814;DHT22;60945;48.516;-2.768;2024-03-06T02:12:12;5.10;81.30
72814;DHT22;60945;48.516;-2.768;2024-03-06T02:14:38;5.10;80.70
72814;DHT22;60945;48.516;-2.768;2024-03-06T02:17:04;5.10;80.90
72814;DHT22;60945;48.516;-2.768;2024-03-06T02:19:43;5.00;80.10
72814;DHT22;60945;48.516;-2.768;2024-03-06T02:22:12;4.90;80.40
72814;DHT22;60945;48.516;-2.768;2024-03-06T02:24:42;4.90;80.40
72814;DHT22;60945;48.516;-2.768;2024-03-06T02:27:08;4.80;81.10
72814;DHT22;60945;48.516;-2.768;2024-03-06T02:29:36;4.70;81.50
72814;DHT22;60945;48.516;-2.768;2024-03-06T02:32:03;4.70;82.10
72814;DHT22;60945;48.516;-2.768;2024-03-06T02:34:29;4.60;81.90
72814;DHT22;60945;48.516;-2.768;2024-03-06T02:36:57;4.60;82.10
72814;DHT22;60945;48.516;-2.768;2024-03-06T02:39:23;4.70;82.80
72814;DHT22;60945;48.516;-2.768;2024-03-06T02:41:49;4.80;82.50
72814;DHT22;60945;48.516;-2.768;2024-03-06T02:44:15;4.80;82.10
72814;DHT22;60945;48.516;-2.768;2024-03-06T02:46:49;4.80;81.50
72814;DHT22;60945;48.516;-2.768;2024-03-06T02:49:16;4.80;81.10
72814;DHT22;60945;48.516;-2.768;2024-03-06T02:51:42;4.70;81.20
72814;DHT22;60945;48.516;-2.768;2024-03-06T02:54:07;4.70;81.30
72814;DHT22;60945;48.516;-2.768;2024-03-06T02:56:33;4.60;81.30
72814;DHT22;60945;48.516;-2.768;2024-03-06T02:58:58;4.50;82.00
72814;DHT22;60945;48.516;-2.768;2024-03-06T03:01:27;4.60;82.00
72814;DHT22;60945;48.516;-2.768;2024-03-06T03:03:53;4.50;82.50
72814;DHT22;60945;48.516;-2.768;2024-03-06T03:06:19;4.60;82.10
72814;DHT22;60945;48.516;-2.768;2024-03-06T03:08:45;4.70;81.70
72814;DHT22;60945;48.516;-2.768;2024-03-06T03:11:10;4.60;81.10
72814;DHT22;60945;48.516;-2.768;2024-03-06T03:13:36;4.50;82.00
72814;DHT22;60945;48.516;-2.768;2024-03-06T03:16:01;4.60;81.20
72814;DHT22;60945;48.516;-2.768;2024-03-06T03:18:29;4.50;81.30
72814;DHT22;60945;48.516;-2.768;2024-03-06T03:20:55;4.40;82.00
72814;DHT22;60945;48.516;-2.768;2024-03-06T03:23:20;4.30;83.30
72814;DHT22;60945;48.516;-2.768;2024-03-06T03:25:48;4.40;82.80
72814;DHT22;60945;48.516;-2.768;2024-03-06T03:28:16;4.30;82.80
72814;DHT22;60945;48.516;-2.768;2024-03-06T03:30:45;4.20;82.90
72814;DHT22;60945;48.516;-2.768;2024-03-06T03:33:11;4.30;82.50
72814;DHT22;60945;48.516;-2.768;2024-03-06T03:35:36;4.30;82.70
72814;DHT22;60945;48.516;-2.768;2024-03-06T03:38:02;4.20;82.60
72814;DHT22;60945;48.516;-2.768;2024-03-06T03:40:29;4.30;82.50
72814;DHT22;60945;48.516;-2.768;2024-03-06T03:42:54;4.20;82.80
72814;DHT22;60945;48.516;-2.768;2024-03-06T03:45:20;4.30;82.80
72814;DHT22;60945;48.516;-2.768;2024-03-06T03:47:45;4.10;82.50
72814;DHT22;60945;48.516;-2.768;2024-03-06T03:50:11;4.10;83.00
72814;DHT22;60945;48.516;-2.768;2024-03-06T03:52:37;4.10;83.10
72814;DHT22;60945;48.516;-2.768;2024-03-06T03:55:07;4.10;83.10
72814;DHT22;60945;48.516;-2.768;2024-03-06T03:57:33;4.00;82.80
72814;DHT22;60945;48.516;-2.768;2024-03-06T03:59:58;4.00;82.80
72814;DHT22;60945;48.516;-2.768;2024-03-06T04:02:24;4.00;82.80
72814;DHT22;60945;48.516;-2.768;2024-03-06T04:04:50;4.00;83.30
72814;DHT22;60945;48.516;-2.768;2024-03-06T04:07:16;4.10;83.30
72814;DHT22;60945;48.516;-2.768;2024-03-06T04:09:44;4.10;83.20
72814;DHT22;60945;48.516;-2.768;2024-03-06T04:12:09;4.00;83.20
72814;DHT22;60945;48.516;-2.768;2024-03-06T04:14:35;4.00;82.80
72814;DHT22;60945;48.516;-2.768;2024-03-06T04:17:01;4.00;82.40
72814;DHT22;60945;48.516;-2.768;2024-03-06T04:19:29;3.90;82.80
72814;DHT22;60945;48.516;-2.768;2024-03-06T04:21:54;4.00;83.00
72814;DHT22;60945;48.516;-2.768;2024-03-06T04:24:20;3.90;82.70
72814;DHT22;60945;48.516;-2.768;2024-03-06T04:26:45;3.90;82.70
72814;DHT22;60945;48.516;-2.768;2024-03-06T04:29:11;3.80;82.70
72814;DHT22;60945;48.516;-2.768;2024-03-06T04:31:37;3.70;83.30
72814;DHT22;60945;48.516;-2.768;2024-03-06T04:34:02;3.60;84.20
72814;DHT22;60945;48.516;-2.768;2024-03-06T04:36:28;3.60;84.20
72814;DHT22;60945;48.516;-2.768;2024-03-06T04:38:53;3.70;83.70
72814;DHT22;60945;48.516;-2.768;2024-03-06T04:41:19;3.70;83.50
72814;DHT22;60945;48.516;-2.768;2024-03-06T04:43:45;3.70;82.90
72814;DHT22;60945;48.516;-2.768;2024-03-06T04:46:13;3.50;83.40
72814;DHT22;60945;48.516;-2.768;2024-03-06T04:48:40;3.40;83.80
72814;DHT22;60945;48.516;-2.768;2024-03-06T04:51:05;3.40;84.70
72814;DHT22;60945;48.516;-2.768;2024-03-06T04:53:31;3.50;84.30
72814;DHT22;60945;48.516;-2.768;2024-03-06T04:55:57;3.50;84.20
72814;DHT22;60945;48.516;-2.768;2024-03-06T04:58:22;3.70;83.50
72814;DHT22;60945;48.516;-2.768;2024-03-06T05:00:48;3.50;83.30
72814;DHT22;60945;48.516;-2.768;2024-03-06T05:03:13;3.50;83.70
72814;DHT22;60945;48.516;-2.768;2024-03-06T05:05:40;3.50;83.60
72814;DHT22;60945;48.516;-2.768;2024-03-06T05:08:06;3.50;83.20
72814;DHT22;60945;48.516;-2.768;2024-03-06T05:10:32;3.50;82.90
72814;DHT22;60945;48.516;-2.768;2024-03-06T05:12:58;3.50;83.50
72814;DHT22;60945;48.516;-2.768;2024-03-06T05:15:23;3.50;82.90
72814;DHT22;60945;48.516;-2.768;2024-03-06T05:17:49;3.40;83.00
72814;DHT22;60945;48.516;-2.768;2024-03-06T05:20:14;3.30;83.50
72814;DHT22;60945;48.516;-2.768;2024-03-06T05:22:40;3.30;83.80
72814;DHT22;60945;48.516;-2.768;2024-03-06T05:25:06;3.30;84.00
72814;DHT22;60945;48.516;-2.768;2024-03-06T05:27:31;3.40;83.90
72814;DHT22;60945;48.516;-2.768;2024-03-06T05:29:57;3.40;83.80
72814;DHT22;60945;48.516;-2.768;2024-03-06T05:32:23;3.40;84.00
72814;DHT22;60945;48.516;-2.768;2024-03-06T05:34:48;3.40;83.70
72814;DHT22;60945;48.516;-2.768;2024-03-06T05:37:14;3.50;83.30
72814;DHT22;60945;48.516;-2.768;2024-03-06T05:39:40;3.50;82.60
72814;DHT22;60945;48.516;-2.768;2024-03-06T05:42:08;3.50;82.60
72814;DHT22;60945;48.516;-2.768;2024-03-06T05:44:33;3.60;82.60
72814;DHT22;60945;48.516;-2.768;2024-03-06T05:47:00;3.60;82.40
72814;DHT22;60945;48.516;-2.768;2024-03-06T05:49:27;3.50;82.40
72814;DHT22;60945;48.516;-2.768;2024-03-06T05:51:52;3.50;81.70
72814;DHT22;60945;48.516;-2.768;2024-03-06T05:54:20;3.40;82.80
72814;DHT22;60945;48.516;-2.768;2024-03-06T05:56:48;3.40;82.40
72814;DHT22;60945;48.516;-2.768;2024-03-06T05:59:15;3.40;82.90
72814;DHT22;60945;48.516;-2.768;2024-03-06T06:01:40;3.40;82.50
72814;DHT22;60945;48.516;-2.768;2024-03-06T06:04:08;3.40;82.90
72814;DHT22;60945;48.516;-2.768;2024-03-06T06:06:35;3.40;83.20
72814;DHT22;60945;48.516;-2.768;2024-03-06T06:09:00;3.50;83.70
72814;DHT22;60945;48.516;-2.768;2024-03-06T06:11:26;3.60;83.20
72814;DHT22;60945;48.516;-2.768;2024-03-06T06:13:51;3.50;82.50
72814;DHT22;60945;48.516;-2.768;2024-03-06T06:16:17;3.50;82.50
72814;DHT22;60945;48.516;-2.768;2024-03-06T06:18:43;3.40;83.30
72814;DHT22;60945;48.516;-2.768;2024-03-06T06:21:08;3.50;83.30
72814;DHT22;60945;48.516;-2.768;2024-03-06T06:23:34;3.40;83.30
72814;DHT22;60945;48.516;-2.768;2024-03-06T06:26:00;3.40;83.40
72814;DHT22;60945;48.516;-2.768;2024-03-06T06:28:26;3.50;83.30
72814;DHT22;60945;48.516;-2.768;2024-03-06T06:30:52;3.70;82.60
72814;DHT22;60945;48.516;-2.768;2024-03-06T06:33:21;3.70;82.30
72814;DHT22;60945;48.516;-2.768;2024-03-06T06:35:47;3.80;82.60
72814;DHT22;60945;48.516;-2.768;2024-03-06T06:38:13;3.90;82.00
72814;DHT22;60945;48.516;-2.768;2024-03-06T06:40:39;4.10;80.70
72814;DHT22;60945;48.516;-2.768;2024-03-06T06:43:06;4.00;80.50
72814;DHT22;60945;48.516;-2.768;2024-03-06T06:45:32;4.00;80.90
72814;DHT22;60945;48.516;-2.768;2024-03-06T06:47:57;3.90;81.20
72814;DHT22;60945;48.516;-2.768;2024-03-06T06:50:23;3.90;81.40
72814;DHT22;60945;48.516;-2.768;2024-03-06T06:52:51;3.90;81.90
72814;DHT22;60945;48.516;-2.768;2024-03-06T06:55:17;4.10;81.50
72814;DHT22;60945;48.516;-2.768;2024-03-06T06:57:43;4.30;81.10
72814;DHT22;60945;48.516;-2.768;2024-03-06T07:00:10;4.50;80.80
72814;DHT22;60945;48.516;-2.768;2024-03-06T07:02:41;4.70;79.90
72814;DHT22;60945;48.516;-2.768;2024-03-06T07:05:08;4.80;79.40
72814;DHT22;60945;48.516;-2.768;2024-03-06T07:07:34;4.70;78.80
72814;DHT22;60945;48.516;-2.768;2024-03-06T07:10:01;4.70;80.70
72814;DHT22;60945;48.516;-2.768;2024-03-06T07:12:26;4.70;81.10
72814;DHT22;60945;48.516;-2.768;2024-03-06T07:14:52;4.70;81.10
72814;DHT22;60945;48.516;-2.768;2024-03-06T07:17:18;4.90;81.20
72814;DHT22;60945;48.516;-2.768;2024-03-06T07:19:43;5.00;79.40
72814;DHT22;60945;48.516;-2.768;2024-03-06T07:22:09;5.10;78.30
72814;DHT22;60945;48.516;-2.768;2024-03-06T07:24:35;5.40;78.00
72814;DHT22;60945;48.516;-2.768;2024-03-06T07:27:02;5.80;77.80
72814;DHT22;60945;48.516;-2.768;2024-03-06T07:29:28;5.80;77.30
72814;DHT22;60945;48.516;-2.768;2024-03-06T07:31:54;5.80;78.10
72814;DHT22;60945;48.516;-2.768;2024-03-06T07:34:20;5.80;78.20
72814;DHT22;60945;48.516;-2.768;2024-03-06T07:36:49;5.80;77.90
72814;DHT22;60945;48.516;-2.768;2024-03-06T07:39:18;6.00;78.40
72814;DHT22;60945;48.516;-2.768;2024-03-06T07:41:44;6.10;77.80
72814;DHT22;60945;48.516;-2.768;2024-03-06T07:44:10;6.20;77.30
72814;DHT22;60945;48.516;-2.768;2024-03-06T07:46:35;6.40;77.20
72814;DHT22;60945;48.516;-2.768;2024-03-06T07:49:01;6.40;76.80
72814;DHT22;60945;48.516;-2.768;2024-03-06T07:51:29;6.50;76.60
72814;DHT22;60945;48.516;-2.768;2024-03-06T07:53:55;7.00;75.40
72814;DHT22;60945;48.516;-2.768;2024-03-06T07:56:21;7.50;72.80
72814;DHT22;60945;48.516;-2.768;2024-03-06T07:58:47;8.10;70.40
72814;DHT22;60945;48.516;-2.768;2024-03-06T08:01:12;8.50;68.90
72814;DHT22;60945;48.516;-2.768;2024-03-06T08:03:39;8.90;67.40
72814;DHT22;60945;48.516;-2.768;2024-03-06T08:06:06;9.30;65.40
72814;DHT22;60945;48.516;-2.768;2024-03-06T08:08:31;9.60;64.40
72814;DHT22;60945;48.516;-2.768;2024-03-06T08:10:57;10.10;62.90
72814;DHT22;60945;48.516;-2.768;2024-03-06T08:13:23;10.00;61.90
72814;DHT22;60945;48.516;-2.768;2024-03-06T08:15:48;10.10;62.60
72814;DHT22;60945;48.516;-2.768;2024-03-06T08:18:14;10.30;61.40
72814;DHT22;60945;48.516;-2.768;2024-03-06T08:20:40;10.50;60.70
72814;DHT22;60945;48.516;-2.768;2024-03-06T08:23:07;10.70;60.80
72814;DHT22;60945;48.516;-2.768;2024-03-06T08:25:33;11.20;59.40
72814;DHT22;60945;48.516;-2.768;2024-03-06T08:27:58;11.60;57.90
72814;DHT22;60945;48.516;-2.768;2024-03-06T08:30:29;12.20;56.40
72814;DHT22;60945;48.516;-2.768;2024-03-06T08:32:57;12.90;54.30
72814;DHT22;60945;48.516;-2.768;2024-03-06T08:35:23;13.50;52.80
72814;DHT22;60945;48.516;-2.768;2024-03-06T08:37:50;13.90;51.40
72814;DHT22;60945;48.516;-2.768;2024-03-06T08:40:16;14.50;50.50
72814;DHT22;60945;48.516;-2.768;2024-03-06T08:42:46;15.00;49.30
72814;DHT22;60945;48.516;-2.768;2024-03-06T08:45:18;14.90;48.70
72814;DHT22;60945;48.516;-2.768;2024-03-06T08:47:44;14.10;50.50
72814;DHT22;60945;48.516;-2.768;2024-03-06T08:50:11;14.00;51.10
72814;DHT22;60945;48.516;-2.768;2024-03-06T08:52:37;14.20;51.10
72814;DHT22;60945;48.516;-2.768;2024-03-06T08:55:03;14.10;51.30
72814;DHT22;60945;48.516;-2.768;2024-03-06T08:57:29;13.90;51.80
72814;DHT22;60945;48.516;-2.768;2024-03-06T08:59:57;14.10;51.90
72814;DHT22;60945;48.516;-2.768;2024-03-06T09:02:22;15.00;50.10
72814;DHT22;60945;48.516;-2.768;2024-03-06T09:04:48;15.50;49.10
72814;DHT22;60945;48.516;-2.768;2024-03-06T09:07:17;15.80;48.00
72814;DHT22;60945;48.516;-2.768;2024-03-06T09:09:43;15.50;48.30
72814;DHT22;60945;48.516;-2.768;2024-03-06T09:12:09;15.10;49.90
72814;DHT22;60945;48.516;-2.768;2024-03-06T09:14:40;14.90;50.10
72814;DHT22;60945;48.516;-2.768;2024-03-06T09:17:06;15.00;50.00
72814;DHT22;60945;48.516;-2.768;2024-03-06T09:19:35;14.60;50.60
72814;DHT22;60945;48.516;-2.768;2024-03-06T09:22:00;14.30;50.70
72814;DHT22;60945;48.516;-2.768;2024-03-06T09:24:26;13.90;51.90
72814;DHT22;60945;48.516;-2.768;2024-03-06T09:26:52;14.10;52.30
72814;DHT22;60945;48.516;-2.768;2024-03-06T09:29:18;14.60;51.00
72814;DHT22;60945;48.516;-2.768;2024-03-06T09:31:44;14.60;51.80
72814;DHT22;60945;48.516;-2.768;2024-03-06T09:34:11;14.40;52.20
72814;DHT22;60945;48.516;-2.768;2024-03-06T09:36:39;14.30;52.20
72814;DHT22;60945;48.516;-2.768;2024-03-06T09:39:04;13.80;52.90
72814;DHT22;60945;48.516;-2.768;2024-03-06T09:41:30;13.40;54.30
72814;DHT22;60945;48.516;-2.768;2024-03-06T09:43:57;13.10;55.80
72814;DHT22;60945;48.516;-2.768;2024-03-06T09:46:22;13.40;55.30
72814;DHT22;60945;48.516;-2.768;2024-03-06T09:48:49;12.80;56.70
72814;DHT22;60945;48.516;-2.768;2024-03-06T09:51:17;12.60;57.70
72814;DHT22;60945;48.516;-2.768;2024-03-06T09:53:42;12.40;58.70
72814;DHT22;60945;48.516;-2.768;2024-03-06T09:56:11;12.10;60.10
72814;DHT22;60945;48.516;-2.768;2024-03-06T09:58:37;12.10;60.70
72814;DHT22;60945;48.516;-2.768;2024-03-06T10:01:02;12.10;61.50
72814;DHT22;60945;48.516;-2.768;2024-03-06T10:03:30;11.90;62.40
72814;DHT22;60945;48.516;-2.768;2024-03-06T10:05:56;12.00;62.40
72814;DHT22;60945;48.516;-2.768;2024-03-06T10:08:22;12.20;62.20
72814;DHT22;60945;48.516;-2.768;2024-03-06T10:10:50;12.10;62.70
72814;DHT22;60945;48.516;-2.768;2024-03-06T10:13:17;12.00;63.50
72814;DHT22;60945;48.516;-2.768;2024-03-06T10:15:56;12.20;63.30
72814;DHT22;60945;48.516;-2.768;2024-03-06T10:18:21;12.30;63.00
72814;DHT22;60945;48.516;-2.768;2024-03-06T10:20:47;12.40;62.90
72814;DHT22;60945;48.516;-2.768;2024-03-06T10:23:13;12.60;62.30
72814;DHT22;60945;48.516;-2.768;2024-03-06T10:25:43;12.20;63.80
72814;DHT22;60945;48.516;-2.768;2024-03-06T10:28:13;12.10;64.70
72814;DHT22;60945;48.516;-2.768;2024-03-06T10:30:40;12.10;64.80
72814;DHT22;60945;48.516;-2.768;2024-03-06T10:33:14;12.10;64.80
72814;DHT22;60945;48.516;-2.768;2024-03-06T10:35:41;12.40;63.60
72814;DHT22;60945;48.516;-2.768;2024-03-06T10:38:08;12.40;63.10
72814;DHT22;60945;48.516;-2.768;2024-03-06T10:40:35;12.20;64.00
72814;DHT22;60945;48.516;-2.768;2024-03-06T10:43:02;12.40;62.40
72814;DHT22;60945;48.516;-2.768;2024-03-06T10:45:41;12.10;62.50
72814;DHT22;60945;48.516;-2.768;2024-03-06T10:48:10;11.80;63.10
72814;DHT22;60945;48.516;-2.768;2024-03-06T10:50:42;12.10;62.40
72814;DHT22;60945;48.516;-2.768;2024-03-06T10:53:13;12.40;61.90
72814;DHT22;60945;48.516;-2.768;2024-03-06T10:55:39;12.80;60.60
72814;DHT22;60945;48.516;-2.768;2024-03-06T10:58:06;12.90;59.90
72814;DHT22;60945;48.516;-2.768;2024-03-06T11:00:39;12.90;60.20
72814;DHT22;60945;48.516;-2.768;2024-03-06T11:03:08;12.60;60.90
72814;DHT22;60945;48.516;-2.768;2024-03-06T11:05:40;12.60;61.50
72814;DHT22;60945;48.516;-2.768;2024-03-06T11:08:13;13.00;60.40
72814;DHT22;60945;48.516;-2.768;2024-03-06T11:10:40;13.30;59.80
72814;DHT22;60945;48.516;-2.768;2024-03-06T11:15:47;13.80;58.40
72814;DHT22;60945;48.516;-2.768;2024-03-06T11:23:29;13.80;58.80
72814;DHT22;60945;48.516;-2.768;2024-03-06T11:25:55;14.40;58.00
72814;DHT22;60945;48.516;-2.768;2024-03-06T11:28:58;14.50;57.80
72814;DHT22;60945;48.516;-2.768;2024-03-06T11:31:19;14.60;57.00
72814;DHT22;60945;48.516;-2.768;2024-03-06T11:33:46;15.20;55.80
72814;DHT22;60945;48.516;-2.768;2024-03-06T11:36:28;14.80;57.00
72814;DHT22;60945;48.516;-2.768;2024-03-06T11:39:05;15.00;56.00
72814;DHT22;60945;48.516;-2.768;2024-03-06T11:41:47;15.30;55.60
72814;DHT22;60945;48.516;-2.768;2024-03-06T11:44:20;14.40;57.40
72814;DHT22;60945;48.516;-2.768;2024-03-06T11:49:21;14.60;57.60
72814;DHT22;60945;48.516;-2.768;2024-03-06T11:51:50;14.10;58.90
72814;DHT22;60945;48.516;-2.768;2024-03-06T11:54:16;13.90;59.50
72814;DHT22;60945;48.516;-2.768;2024-03-06T11:56:49;13.80;60.70
72814;DHT22;60945;48.516;-2.768;2024-03-06T11:59:29;13.80;60.50
72814;DHT22;60945;48.516;-2.768;2024-03-06T12:01:57;13.80;60.70
72814;DHT22;60945;48.516;-2.768;2024-03-06T12:04:24;13.60;60.70
72814;DHT22;60945;48.516;-2.768;2024-03-06T12:06:50;13.50;61.50
72814;DHT22;60945;48.516;-2.768;2024-03-06T12:09:16;13.60;61.20
72814;DHT22;60945;48.516;-2.768;2024-03-06T12:11:42;13.80;60.90
72814;DHT22;60945;48.516;-2.768;2024-03-06T12:14:16;13.40;61.70
72814;DHT22;60945;48.516;-2.768;2024-03-06T12:16:43;13.20;63.40
72814;DHT22;60945;48.516;-2.768;2024-03-06T12:19:09;13.20;63.30
72814;DHT22;60945;48.516;-2.768;2024-03-06T12:21:35;13.30;62.60
72814;DHT22;60945;48.516;-2.768;2024-03-06T12:24:08;13.10;63.10
72814;DHT22;60945;48.516;-2.768;2024-03-06T12:26:35;13.30;63.10
72814;DHT22;60945;48.516;-2.768;2024-03-06T12:29:09;13.30;62.80
72814;DHT22;60945;48.516;-2.768;2024-03-06T12:31:39;13.50;62.20
72814;DHT22;60945;48.516;-2.768;2024-03-06T12:34:05;13.20;63.10
72814;DHT22;60945;48.516;-2.768;2024-03-06T12:36:31;13.00;63.80
72814;DHT22;60945;48.516;-2.768;2024-03-06T12:39:02;13.00;64.10
72814;DHT22;60945;48.516;-2.768;2024-03-06T12:41:27;12.60;65.20
72814;DHT22;60945;48.516;-2.768;2024-03-06T12:43:54;12.60;65.60
72814;DHT22;60945;48.516;-2.768;2024-03-06T12:46:21;12.80;65.30
72814;DHT22;60945;48.516;-2.768;2024-03-06T12:48:47;13.00;64.50
72814;DHT22;60945;48.516;-2.768;2024-03-06T12:51:12;13.40;63.70
72814;DHT22;60945;48.516;-2.768;2024-03-06T12:53:38;13.60;62.80
72814;DHT22;60945;48.516;-2.768;2024-03-06T12:56:05;13.50;63.80
72814;DHT22;60945;48.516;-2.768;2024-03-06T12:58:31;13.50;63.70
72814;DHT22;60945;48.516;-2.768;2024-03-06T13:00:57;13.50;64.10
72814;DHT22;60945;48.516;-2.768;2024-03-06T13:03:24;13.80;63.10
72814;DHT22;60945;48.516;-2.768;2024-03-06T13:05:50;13.70;63.20
72814;DHT22;60945;48.516;-2.768;2024-03-06T13:08:16;13.60;63.80
72814;DHT22;60945;48.516;-2.768;2024-03-06T13:10:42;13.30;64.60
72814;DHT22;60945;48.516;-2.768;2024-03-06T13:13:08;13.50;64.40
72814;DHT22;60945;48.516;-2.768;2024-03-06T13:15:37;13.70;64.00
72814;DHT22;60945;48.516;-2.768;2024-03-06T13:18:03;14.10;62.60
72814;DHT22;60945;48.516;-2.768;2024-03-06T13:20:30;14.20;61.80
72814;DHT22;60945;48.516;-2.768;2024-03-06T13:22:56;14.30;61.30
72814;DHT22;60945;48.516;-2.768;2024-03-06T13:25:21;14.00;62.00
72814;DHT22;60945;48.516;-2.768;2024-03-06T13:27:47;13.80;63.10
72814;DHT22;60945;48.516;-2.768;2024-03-06T13:30:13;14.10;62.30
72814;DHT22;60945;48.516;-2.768;2024-03-06T13:32:39;14.20;62.00
72814;DHT22;60945;48.516;-2.768;2024-03-06T13:35:05;13.80;62.90
72814;DHT22;60945;48.516;-2.768;2024-03-06T13:37:38;13.60;63.70
72814;DHT22;60945;48.516;-2.768;2024-03-06T13:40:04;13.30;64.60
72814;DHT22;60945;48.516;-2.768;2024-03-06T13:42:32;13.10;66.00
72814;DHT22;60945;48.516;-2.768;2024-03-06T13:44:58;13.20;65.40
72814;DHT22;60945;48.516;-2.768;2024-03-06T13:47:23;13.20;65.70
72814;DHT22;60945;48.516;-2.768;2024-03-06T13:49:49;13.00;66.10
72814;DHT22;60945;48.516;-2.768;2024-03-06T13:52:15;12.60;68.00
72814;DHT22;60945;48.516;-2.768;2024-03-06T13:54:46;12.40;69.70
72814;DHT22;60945;48.516;-2.768;2024-03-06T13:57:11;12.50;70.10
72814;DHT22;60945;48.516;-2.768;2024-03-06T13:59:37;12.50;69.60
72814;DHT22;60945;48.516;-2.768;2024-03-06T14:02:03;12.70;69.20
72814;DHT22;60945;48.516;-2.768;2024-03-06T14:04:30;12.50;69.50
72814;DHT22;60945;48.516;-2.768;2024-03-06T14:06:56;12.60;69.90
72814;DHT22;60945;48.516;-2.768;2024-03-06T14:09:22;12.60;69.80
72814;DHT22;60945;48.516;-2.768;2024-03-06T14:11:50;12.70;69.70
72814;DHT22;60945;48.516;-2.768;2024-03-06T14:14:16;12.90;69.00
72814;DHT22;60945;48.516;-2.768;2024-03-06T14:16:42;12.90;68.60
72814;DHT22;60945;48.516;-2.768;2024-03-06T14:19:08;13.00;68.90
72814;DHT22;60945;48.516;-2.768;2024-03-06T14:21:34;12.80;69.10
72814;DHT22;60945;48.516;-2.768;2024-03-06T14:24:01;12.70;69.70
72814;DHT22;60945;48.516;-2.768;2024-03-06T14:26:31;12.70;70.20
72814;DHT22;60945;48.516;-2.768;2024-03-06T14:29:01;12.60;70.60
72814;DHT22;60945;48.516;-2.768;2024-03-06T14:31:31;12.40;71.10
72814;DHT22;60945;48.516;-2.768;2024-03-06T14:33:57;12.40;71.70
72814;DHT22;60945;48.516;-2.768;2024-03-06T14:36:23;12.40;71.40
72814;DHT22;60945;48.516;-2.768;2024-03-06T14:38:51;12.20;72.50
72814;DHT22;60945;48.516;-2.768;2024-03-06T14:41:18;12.30;72.30
72814;DHT22;60945;48.516;-2.768;2024-03-06T14:43:44;12.20;72.70
72814;DHT22;60945;48.516;-2.768;2024-03-06T14:46:10;12.20;72.60
72814;DHT22;60945;48.516;-2.768;2024-03-06T14:48:38;12.20;72.90
72814;DHT22;60945;48.516;-2.768;2024-03-06T14:51:04;12.10;73.40
72814;DHT22;60945;48.516;-2.768;2024-03-06T14:53:30;12.20;73.10
72814;DHT22;60945;48.516;-2.768;2024-03-06T14:55:59;12.30;72.90
72814;DHT22;60945;48.516;-2.768;2024-03-06T14:58:24;12.30;72.50
72814;DHT22;60945;48.516;-2.768;2024-03-06T15:00:50;12.50;71.90
72814;DHT22;60945;48.516;-2.768;2024-03-06T15:03:19;12.90;71.10
72814;DHT22;60945;48.516;-2.768;2024-03-06T15:05:45;14.10;68.60
72814;DHT22;60945;48.516;-2.768;2024-03-06T15:08:11;16.30;59.50
72814;DHT22;60945;48.516;-2.768;2024-03-06T15:10:37;16.30;59.10
72814;DHT22;60945;48.516;-2.768;2024-03-06T15:13:03;16.00;59.60
72814;DHT22;60945;48.516;-2.768;2024-03-06T15:15:30;15.30;61.70
72814;DHT22;60945;48.516;-2.768;2024-03-06T15:17:59;14.90;62.80
72814;DHT22;60945;48.516;-2.768;2024-03-06T15:20:25;14.30;65.00
72814;DHT22;60945;48.516;-2.768;2024-03-06T15:22:52;14.20;65.50
72814;DHT22;60945;48.516;-2.768;2024-03-06T15:25:18;14.00;65.80
72814;DHT22;60945;48.516;-2.768;2024-03-06T15:27:44;13.60;67.10
72814;DHT22;60945;48.516;-2.768;2024-03-06T15:30:10;13.10;69.20
72814;DHT22;60945;48.516;-2.768;2024-03-06T15:32:36;12.90;69.80